VEJS/IXW METAR and TAF weather

Enter ICAO airport designator
Station Type Date Time Source
VEJS METAR 2019/12/08 10:00 UTC NOAA

VEJS 081000Z 29003KT 3000 HZ FEW020 28/13 Q1014


Station Type Date Time Source
VEJS Decoded METAR 2019/12/08 10:00 UTC NOAA

Jamshedpur, India (VEJS) 22-49N 086-11E 142M
Dec 08, 2019 - 05:00 AM EST / 2019.12.08 1000 UTC
Wind: from the WNW (290 degrees) at 3 MPH (3 KT):0
Visibility: 1 mile(s):0
Sky conditions: mostly clear
Weather: haze
Temperature: 82 F (28 C)
Dew Point: 55 F (13 C)
Relative Humidity: 39%
Pressure (altimeter): 29.94 in. Hg (1014 hPa)
ob: VEJS 081000Z 29003KT 3000 HZ FEW020 28/13 Q1014
cycle: 10

Station Type Date Time Source
VEJS TAF 2009/11/01 09:00 UTC NOAA

TAF VEJS 010900Z 0112/0121 36004KT 2500 HZ FEW020 SCT025 SCT100
BECMG 0116/0118 00000KT 2000 HZ FEW018 SCT
BECMG 0119/0121 00000KT 1600 BR

Example: see airport list